sensor_id;sensor_type;location;lat;lon;timestamp;noise_LAeq;noise_LA_min;noise_LA_max;noise_LA01;noise_LA95
66747;Laerm;53658;50.742;10.864;2022-09-21T00:01:10;38.00;33.90;40.03;;
66747;Laerm;53658;50.742;10.864;2022-09-21T00:03:37;38.03;34.69;40.33;;
66747;Laerm;53658;50.742;10.864;2022-09-21T00:06:10;38.05;34.69;40.43;;
66747;Laerm;53658;50.742;10.864;2022-09-21T00:08:36;46.77;33.90;82.34;;
66747;Laerm;53658;50.742;10.864;2022-09-21T00:11:03;38.08;33.44;41.14;;
66747;Laerm;53658;50.742;10.864;2022-09-21T00:13:31;38.00;33.44;39.92;;
66747;Laerm;53658;50.742;10.864;2022-09-21T00:15:58;38.00;35.04;40.23;;
66747;Laerm;53658;50.742;10.864;2022-09-21T00:18:26;47.03;34.69;80.34;;
66747;Laerm;53658;50.742;10.864;2022-09-21T00:20:52;37.99;33.90;41.14;;
66747;Laerm;53658;50.742;10.864;2022-09-21T00:23:18;38.00;34.31;40.53;;
66747;Laerm;53658;50.742;10.864;2022-09-21T00:25:44;38.00;34.69;40.03;;
66747;Laerm;53658;50.742;10.864;2022-09-21T00:28:10;38.00;32.93;40.33;;
66747;Laerm;53658;50.742;10.864;2022-09-21T00:30:36;38.00;32.93;40.53;;
66747;Laerm;53658;50.742;10.864;2022-09-21T00:33:02;37.99;33.44;40.03;;
66747;Laerm;53658;50.742;10.864;2022-09-21T00:35:28;37.99;34.31;40.23;;
66747;Laerm;53658;50.742;10.864;2022-09-21T00:37:53;38.00;33.90;40.13;;
66747;Laerm;53658;50.742;10.864;2022-09-21T00:40:19;38.00;33.90;40.13;;
66747;Laerm;53658;50.742;10.864;2022-09-21T00:42:45;38.01;34.31;45.77;;
66747;Laerm;53658;50.742;10.864;2022-09-21T00:45:12;38.00;34.31;42.06;;
66747;Laerm;53658;50.742;10.864;2022-09-21T00:47:49;38.26;28.67;60.99;;
66747;Laerm;53658;50.742;10.864;2022-09-21T00:50:20;38.00;34.69;40.33;;
66747;Laerm;53658;50.742;10.864;2022-09-21T00:52:54;38.01;33.90;40.62;;
66747;Laerm;53658;50.742;10.864;2022-09-21T00:55:31;39.67;33.90;71.08;;
66747;Laerm;53658;50.742;10.864;2022-09-21T00:58:06;38.10;34.69;41.06;;
66747;Laerm;53658;50.742;10.864;2022-09-21T01:00:35;38.00;33.44;40.43;;
66747;Laerm;53658;50.742;10.864;2022-09-21T01:03:03;37.98;34.31;39.81;;
66747;Laerm;53658;50.742;10.864;2022-09-21T01:05:30;38.03;33.90;40.23;;
66747;Laerm;53658;50.742;10.864;2022-09-21T01:08:00;38.00;34.31;40.03;;
66747;Laerm;53658;50.742;10.864;2022-09-21T01:16:26;37.97;32.93;40.33;;
66747;Laerm;53658;50.742;10.864;2022-09-21T01:25:12;37.96;32.35;40.33;;
66747;Laerm;53658;50.742;10.864;2022-09-21T01:31:00;46.08;29.92;82.04;;
66747;Laerm;53658;50.742;10.864;2022-09-21T01:33:47;37.94;32.93;40.03;;
66747;Laerm;53658;50.742;10.864;2022-09-21T01:36:21;37.93;33.44;40.33;;
66747;Laerm;53658;50.742;10.864;2022-09-21T01:38:55;37.94;34.31;40.43;;
66747;Laerm;53658;50.742;10.864;2022-09-21T01:41:27;37.94;33.44;41.82;;
66747;Laerm;53658;50.742;10.864;2022-09-21T01:44:03;37.93;33.44;40.23;;
66747;Laerm;53658;50.742;10.864;2022-09-21T01:46:35;37.91;33.90;40.13;;
66747;Laerm;53658;50.742;10.864;2022-09-21T01:49:14;37.90;33.44;39.92;;
66747;Laerm;53658;50.742;10.864;2022-09-21T01:51:50;37.90;33.90;41.88;;
66747;Laerm;53658;50.742;10.864;2022-09-21T01:54:22;37.88;33.90;39.92;;
66747;Laerm;53658;50.742;10.864;2022-09-21T02:02:43;37.90;33.90;40.53;;
66747;Laerm;53658;50.742;10.864;2022-09-21T02:05:07;37.89;33.90;41.14;;
66747;Laerm;53658;50.742;10.864;2022-09-21T02:07:34;37.91;33.44;40.53;;
66747;Laerm;53658;50.742;10.864;2022-09-21T02:10:04;37.88;33.90;40.71;;
66747;Laerm;53658;50.742;10.864;2022-09-21T02:12:31;37.88;33.90;39.92;;
66747;Laerm;53658;50.742;10.864;2022-09-21T02:14:59;37.91;33.90;40.03;;
66747;Laerm;53658;50.742;10.864;2022-09-21T02:17:33;37.89;33.44;41.06;;
66747;Laerm;53658;50.742;10.864;2022-09-21T02:20:22;37.89;32.93;39.92;;
66747;Laerm;53658;50.742;10.864;2022-09-21T02:25:47;37.85;32.35;39.92;;
66747;Laerm;53658;50.742;10.864;2022-09-21T02:28:46;37.88;33.90;39.92;;
66747;Laerm;53658;50.742;10.864;2022-09-21T02:36:45;37.85;33.44;40.23;;
66747;Laerm;53658;50.742;10.864;2022-09-21T02:39:18;37.85;33.44;39.70;;
66747;Laerm;53658;50.742;10.864;2022-09-21T02:42:00;37.86;32.35;40.23;;
66747;Laerm;53658;50.742;10.864;2022-09-21T02:44:38;37.89;34.31;40.03;;
66747;Laerm;53658;50.742;10.864;2022-09-21T02:47:27;38.09;33.44;47.91;;
66747;Laerm;53658;50.742;10.864;2022-09-21T02:50:11;37.89;33.44;40.13;;
66747;Laerm;53658;50.742;10.864;2022-09-21T02:52:43;37.91;32.93;40.33;;
66747;Laerm;53658;50.742;10.864;2022-09-21T02:55:12;37.90;34.31;39.92;;
66747;Laerm;53658;50.742;10.864;2022-09-21T02:57:40;37.89;33.44;40.03;;
66747;Laerm;53658;50.742;10.864;2022-09-21T03:00:07;37.90;33.44;40.33;;
66747;Laerm;53658;50.742;10.864;2022-09-21T03:02:38;37.92;33.90;40.62;;
66747;Laerm;53658;50.742;10.864;2022-09-21T03:05:04;37.92;32.58;40.03;;
66747;Laerm;53658;50.742;10.864;2022-09-21T03:07:31;37.91;33.44;40.13;;
66747;Laerm;53658;50.742;10.864;2022-09-21T03:09:57;37.91;32.93;40.13;;
66747;Laerm;53658;50.742;10.864;2022-09-21T03:12:22;37.93;34.69;40.13;;
66747;Laerm;53658;50.742;10.864;2022-09-21T03:14:48;37.95;34.31;40.62;;
66747;Laerm;53658;50.742;10.864;2022-09-21T03:17:15;40.49;33.44;72.99;;
66747;Laerm;53658;50.742;10.864;2022-09-21T03:19:41;38.04;33.90;40.03;;
66747;Laerm;53658;50.742;10.864;2022-09-21T03:22:07;37.93;33.90;40.33;;
66747;Laerm;53658;50.742;10.864;2022-09-21T03:24:33;38.08;33.09;41.53;;
66747;Laerm;53658;50.742;10.864;2022-09-21T03:27:17;51.08;33.90;87.53;;
66747;Laerm;53658;50.742;10.864;2022-09-21T03:29:44;38.16;33.44;41.46;;
66747;Laerm;53658;50.742;10.864;2022-09-21T03:32:11;44.70;34.31;79.80;;
66747;Laerm;53658;50.742;10.864;2022-09-21T03:34:37;38.05;33.44;52.29;;
66747;Laerm;53658;50.742;10.864;2022-09-21T03:37:05;49.41;33.44;85.31;;
66747;Laerm;53658;50.742;10.864;2022-09-21T03:39:31;38.06;33.90;40.71;;
66747;Laerm;53658;50.742;10.864;2022-09-21T03:41:58;38.07;33.44;40.71;;
66747;Laerm;53658;50.742;10.864;2022-09-21T03:44:24;38.14;33.90;40.89;;
66747;Laerm;53658;50.742;10.864;2022-09-21T03:46:51;38.09;32.93;40.71;;
66747;Laerm;53658;50.742;10.864;2022-09-21T03:49:19;38.18;33.90;41.46;;
66747;Laerm;53658;50.742;10.864;2022-09-21T03:51:45;38.01;33.44;41.30;;
66747;Laerm;53658;50.742;10.864;2022-09-21T03:54:11;38.12;32.93;41.38;;
66747;Laerm;53658;50.742;10.864;2022-09-21T03:56:37;38.20;33.44;40.98;;
66747;Laerm;53658;50.742;10.864;2022-09-21T03:59:03;38.09;33.90;40.89;;
66747;Laerm;53658;50.742;10.864;2022-09-21T04:01:29;38.10;33.44;41.89;;
66747;Laerm;53658;50.742;10.864;2022-09-21T04:03:54;38.27;33.90;41.14;;
66747;Laerm;53658;50.742;10.864;2022-09-21T04:06:21;38.24;33.44;41.38;;
66747;Laerm;53658;50.742;10.864;2022-09-21T04:08:47;38.09;33.44;41.14;;
66747;Laerm;53658;50.742;10.864;2022-09-21T04:11:16;38.05;32.35;41.22;;
66747;Laerm;53658;50.742;10.864;2022-09-21T04:13:43;38.03;32.93;41.06;;
66747;Laerm;53658;50.742;10.864;2022-09-21T04:16:14;37.91;33.44;41.06;;
66747;Laerm;53658;50.742;10.864;2022-09-21T04:18:43;38.01;33.44;40.89;;
66747;Laerm;53658;50.742;10.864;2022-09-21T04:21:09;37.96;31.68;41.14;;
66747;Laerm;53658;50.742;10.864;2022-09-21T04:23:35;38.00;33.90;40.98;;
66747;Laerm;53658;50.742;10.864;2022-09-21T04:26:01;37.93;33.44;41.22;;
66747;Laerm;53658;50.742;10.864;2022-09-21T04:28:27;37.99;32.93;40.98;;
66747;Laerm;53658;50.742;10.864;2022-09-21T04:30:54;47.91;33.44;83.61;;
66747;Laerm;53658;50.742;10.864;2022-09-21T04:33:20;38.29;32.35;41.75;;
66747;Laerm;53658;50.742;10.864;2022-09-21T04:35:54;38.22;32.35;41.96;;
66747;Laerm;53658;50.742;10.864;2022-09-21T04:38:20;38.01;32.35;40.98;;
66747;Laerm;53658;50.742;10.864;2022-09-21T04:40:54;38.26;35.66;40.33;;
66747;Laerm;53658;50.742;10.864;2022-09-21T04:43:19;38.39;35.86;40.33;;
66747;Laerm;53658;50.742;10.864;2022-09-21T04:45:45;38.41;35.04;40.03;;
66747;Laerm;53658;50.742;10.864;2022-09-21T04:48:11;38.57;35.86;40.33;;
66747;Laerm;53658;50.742;10.864;2022-09-21T04:50:37;38.79;36.69;40.53;;
66747;Laerm;53658;50.742;10.864;2022-09-21T04:53:07;38.83;36.45;40.53;;
66747;Laerm;53658;50.742;10.864;2022-09-21T04:55:33;38.91;36.69;40.71;;
66747;Laerm;53658;50.742;10.864;2022-09-21T04:58:00;38.94;36.91;40.62;;
66747;Laerm;53658;50.742;10.864;2022-09-21T05:00:26;38.84;36.91;40.62;;
66747;Laerm;53658;50.742;10.864;2022-09-21T05:02:52;38.86;36.69;40.33;;
66747;Laerm;53658;50.742;10.864;2022-09-21T05:05:18;38.97;36.69;40.53;;
66747;Laerm;53658;50.742;10.864;2022-09-21T05:07:44;38.98;36.45;40.62;;
66747;Laerm;53658;50.742;10.864;2022-09-21T05:10:10;38.93;36.69;40.71;;
66747;Laerm;53658;50.742;10.864;2022-09-21T05:12:36;38.85;36.91;40.53;;
66747;Laerm;53658;50.742;10.864;2022-09-21T05:15:02;38.68;36.20;40.53;;
66747;Laerm;53658;50.742;10.864;2022-09-21T05:17:28;38.72;36.45;40.43;;
66747;Laerm;53658;50.742;10.864;2022-09-21T05:19:54;38.76;36.20;40.33;;
66747;Laerm;53658;50.742;10.864;2022-09-21T05:22:20;38.80;36.69;40.62;;
66747;Laerm;53658;50.742;10.864;2022-09-21T05:24:47;38.80;36.69;40.43;;
66747;Laerm;53658;50.742;10.864;2022-09-21T05:27:13;38.75;36.69;40.43;;
66747;Laerm;53658;50.742;10.864;2022-09-21T05:29:39;38.62;36.20;40.53;;
66747;Laerm;53658;50.742;10.864;2022-09-21T05:32:26;38.44;35.94;40.43;;
66747;Laerm;53658;50.742;10.864;2022-09-21T05:40:17;38.17;34.34;40.13;;
66747;Laerm;53658;50.742;10.864;2022-09-21T05:42:44;37.98;33.90;40.03;;
66747;Laerm;53658;50.742;10.864;2022-09-21T05:45:15;38.10;35.04;40.13;;
66747;Laerm;53658;50.742;10.864;2022-09-21T05:51:02;38.00;33.44;41.30;;
66747;Laerm;53658;50.742;10.864;2022-09-21T05:53:48;37.86;33.44;40.13;;
66747;Laerm;53658;50.742;10.864;2022-09-21T06:02:25;37.73;32.35;40.23;;
66747;Laerm;53658;50.742;10.864;2022-09-21T06:04:56;37.67;31.68;40.03;;
66747;Laerm;53658;50.742;10.864;2022-09-21T06:07:24;37.69;33.44;40.43;;
66747;Laerm;53658;50.742;10.864;2022-09-21T06:09:50;37.65;32.93;40.33;;
66747;Laerm;53658;50.742;10.864;2022-09-21T06:12:16;37.65;32.93;40.23;;
66747;Laerm;53658;50.742;10.864;2022-09-21T06:14:42;37.66;32.93;53.90;;
66747;Laerm;53658;50.742;10.864;2022-09-21T06:17:08;37.68;32.35;40.43;;
66747;Laerm;53658;50.742;10.864;2022-09-21T06:19:34;37.69;32.93;40.13;;
66747;Laerm;53658;50.742;10.864;2022-09-21T06:22:00;37.70;33.44;40.43;;
66747;Laerm;53658;50.742;10.864;2022-09-21T06:24:26;49.70;32.35;85.59;;
66747;Laerm;53658;50.742;10.864;2022-09-21T06:26:52;37.73;32.35;40.71;;
66747;Laerm;53658;50.742;10.864;2022-09-21T06:29:18;37.70;33.44;40.63;;
66747;Laerm;53658;50.742;10.864;2022-09-21T06:31:50;48.19;26.91;84.09;;
66747;Laerm;53658;50.742;10.864;2022-09-21T06:34:17;48.63;31.68;84.45;;
66747;Laerm;53658;50.742;10.864;2022-09-21T06:36:43;37.82;32.35;40.80;;
66747;Laerm;53658;50.742;10.864;2022-09-21T06:39:10;37.75;31.68;42.29;;
66747;Laerm;53658;50.742;10.864;2022-09-21T06:41:36;37.70;32.35;41.14;;
66747;Laerm;53658;50.742;10.864;2022-09-21T06:44:08;37.67;31.68;41.82;;
66747;Laerm;53658;50.742;10.864;2022-09-21T06:46:34;37.79;32.35;40.62;;
66747;Laerm;53658;50.742;10.864;2022-09-21T06:49:00;37.80;32.93;41.46;;
66747;Laerm;53658;50.742;10.864;2022-09-21T06:51:26;37.83;33.44;40.80;;
66747;Laerm;53658;50.742;10.864;2022-09-21T06:53:56;37.89;33.44;45.86;;
66747;Laerm;53658;50.742;10.864;2022-09-21T06:56:23;37.92;32.35;41.46;;
66747;Laerm;53658;50.742;10.864;2022-09-21T06:58:49;38.01;32.35;40.80;;
66747;Laerm;53658;50.742;10.864;2022-09-21T07:01:16;37.91;32.93;41.41;;
66747;Laerm;53658;50.742;10.864;2022-09-21T07:03:42;38.02;33.44;40.98;;
66747;Laerm;53658;50.742;10.864;2022-09-21T07:06:10;38.08;32.35;40.62;;
66747;Laerm;53658;50.742;10.864;2022-09-21T07:08:37;38.22;32.93;41.06;;
66747;Laerm;53658;50.742;10.864;2022-09-21T07:11:05;50.56;34.69;85.17;;
66747;Laerm;53658;50.742;10.864;2022-09-21T07:13:31;42.15;35.66;49.07;;
66747;Laerm;53658;50.742;10.864;2022-09-21T07:15:56;51.43;36.45;87.06;;
66747;Laerm;53658;50.742;10.864;2022-09-21T07:18:22;40.90;35.01;45.94;;
66747;Laerm;53658;50.742;10.864;2022-09-21T07:20:48;40.76;33.90;47.98;;
66747;Laerm;53658;50.742;10.864;2022-09-21T07:23:17;40.77;35.66;45.17;;
66747;Laerm;53658;50.742;10.864;2022-09-21T07:25:45;40.52;34.31;47.90;;
66747;Laerm;53658;50.742;10.864;2022-09-21T07:28:14;40.33;34.69;44.51;;
66747;Laerm;53658;50.742;10.864;2022-09-21T07:30:41;52.24;35.04;84.37;;
66747;Laerm;53658;50.742;10.864;2022-09-21T07:33:07;60.01;37.70;93.15;;
66747;Laerm;53658;50.742;10.864;2022-09-21T07:35:33;42.55;38.37;67.21;;
66747;Laerm;53658;50.742;10.864;2022-09-21T07:38:01;43.13;38.37;69.92;;
66747;Laerm;53658;50.742;10.864;2022-09-21T07:40:28;43.48;38.05;74.12;;
66747;Laerm;53658;50.742;10.864;2022-09-21T07:42:58;42.22;37.88;65.32;;
66747;Laerm;53658;50.742;10.864;2022-09-21T07:45:25;42.38;37.70;67.19;;
66747;Laerm;53658;50.742;10.864;2022-09-21T07:47:51;48.52;36.10;83.06;;
66747;Laerm;53658;50.742;10.864;2022-09-21T07:50:21;50.20;38.37;84.03;;
66747;Laerm;53658;50.742;10.864;2022-09-21T07:52:47;43.41;37.32;71.69;;
66747;Laerm;53658;50.742;10.864;2022-09-21T07:55:14;42.14;37.32;59.10;;
66747;Laerm;53658;50.742;10.864;2022-09-21T07:57:40;40.80;36.20;45.04;;
66747;Laerm;53658;50.742;10.864;2022-09-21T08:00:24;39.27;34.69;50.21;;
66747;Laerm;53658;50.742;10.864;2022-09-21T08:02:52;39.82;35.36;63.42;;
66747;Laerm;53658;50.742;10.864;2022-09-21T08:05:18;39.82;36.69;42.88;;
66747;Laerm;53658;50.742;10.864;2022-09-21T08:07:44;40.01;37.52;44.80;;
66747;Laerm;53658;50.742;10.864;2022-09-21T08:10:09;40.09;37.70;42.22;;
66747;Laerm;53658;50.742;10.864;2022-09-21T08:12:35;39.88;37.32;43.94;;
66747;Laerm;53658;50.742;10.864;2022-09-21T08:15:01;39.94;37.70;42.22;;
66747;Laerm;53658;50.742;10.864;2022-09-21T08:17:27;39.94;37.70;41.75;;
66747;Laerm;53658;50.742;10.864;2022-09-21T08:19:54;39.80;37.12;41.75;;
66747;Laerm;53658;50.742;10.864;2022-09-21T08:22:19;39.75;36.91;41.88;;
66747;Laerm;53658;50.742;10.864;2022-09-21T08:24:49;39.70;36.69;41.61;;
66747;Laerm;53658;50.742;10.864;2022-09-21T08:27:14;39.53;36.45;42.16;;
66747;Laerm;53658;50.742;10.864;2022-09-21T08:29:40;39.42;36.20;41.82;;
66747;Laerm;53658;50.742;10.864;2022-09-21T08:32:07;39.57;37.12;41.61;;
66747;Laerm;53658;50.742;10.864;2022-09-21T08:34:33;39.41;36.20;41.61;;
66747;Laerm;53658;50.742;10.864;2022-09-21T08:36:59;39.26;36.20;43.14;;
66747;Laerm;53658;50.742;10.864;2022-09-21T08:39:24;39.07;34.69;41.22;;
66747;Laerm;53658;50.742;10.864;2022-09-21T08:42:02;39.00;35.36;41.46;;
66747;Laerm;53658;50.742;10.864;2022-09-21T08:44:42;38.88;35.66;41.89;;
66747;Laerm;53658;50.742;10.864;2022-09-21T08:50:03;38.47;33.90;40.71;;
66747;Laerm;53658;50.742;10.864;2022-09-21T08:52:32;38.55;34.31;40.98;;
66747;Laerm;53658;50.742;10.864;2022-09-21T08:55:04;38.64;35.04;41.06;;
66747;Laerm;53658;50.742;10.864;2022-09-21T08:57:32;38.79;35.36;41.46;;
66747;Laerm;53658;50.742;10.864;2022-09-21T09:00:00;38.60;35.36;41.06;;
66747;Laerm;53658;50.742;10.864;2022-09-21T09:13:23;38.01;32.93;42.47;;
66747;Laerm;53658;50.742;10.864;2022-09-21T09:22:04;37.99;32.93;40.62;;
66747;Laerm;53658;50.742;10.864;2022-09-21T09:24:48;37.96;33.44;43.19;;
66747;Laerm;53658;50.742;10.864;2022-09-21T09:27:26;37.82;32.93;40.80;;
66747;Laerm;53658;50.742;10.864;2022-09-21T09:30:03;37.83;32.93;40.62;;
66747;Laerm;53658;50.742;10.864;2022-09-21T09:35:32;37.72;32.93;40.53;;
66747;Laerm;53658;50.742;10.864;2022-09-21T09:38:25;37.63;32.93;40.62;;
66747;Laerm;53658;50.742;10.864;2022-09-21T09:41:00;37.65;32.35;40.71;;
66747;Laerm;53658;50.742;10.864;2022-09-21T09:46:56;38.51;33.44;41.22;;
66747;Laerm;53658;50.742;10.864;2022-09-21T09:49:32;38.94;35.36;41.14;;
66747;Laerm;53658;50.742;10.864;2022-09-21T09:52:01;39.29;36.20;41.82;;
66747;Laerm;53658;50.742;10.864;2022-09-21T09:54:32;39.63;37.32;41.68;;
66747;Laerm;53658;50.742;10.864;2022-09-21T09:57:03;39.76;37.32;43.19;;
66747;Laerm;53658;50.742;10.864;2022-09-21T10:02:26;39.73;36.91;46.57;;
66747;Laerm;53658;50.742;10.864;2022-09-21T10:05:04;39.81;37.32;43.44;;
66747;Laerm;53658;50.742;10.864;2022-09-21T10:07:39;39.78;37.32;41.68;;
66747;Laerm;53658;50.742;10.864;2022-09-21T10:12:47;39.78;37.12;42.16;;
66747;Laerm;53658;50.742;10.864;2022-09-21T10:15:16;39.79;37.12;41.53;;
66747;Laerm;53658;50.742;10.864;2022-09-21T10:17:47;39.77;37.12;41.46;;
66747;Laerm;53658;50.742;10.864;2022-09-21T10:20:17;39.78;37.52;41.68;;
66747;Laerm;53658;50.742;10.864;2022-09-21T10:22:53;39.79;36.69;41.81;;
66747;Laerm;53658;50.742;10.864;2022-09-21T10:25:20;39.74;37.12;41.75;;
66747;Laerm;53658;50.742;10.864;2022-09-21T10:27:50;39.74;37.12;41.61;;
66747;Laerm;53658;50.742;10.864;2022-09-21T10:32:56;39.76;36.56;41.61;;
66747;Laerm;53658;50.742;10.864;2022-09-21T10:35:23;39.68;37.17;41.75;;
66747;Laerm;53658;50.742;10.864;2022-09-21T10:38:18;39.60;36.91;41.53;;
66747;Laerm;53658;50.742;10.864;2022-09-21T10:40:46;39.57;36.91;41.61;;
66747;Laerm;53658;50.742;10.864;2022-09-21T10:43:22;39.52;36.45;41.68;;
66747;Laerm;53658;50.742;10.864;2022-09-21T10:45:55;39.57;36.45;41.46;;
66747;Laerm;53658;50.742;10.864;2022-09-21T10:48:23;39.61;35.94;41.75;;
66747;Laerm;53658;50.742;10.864;2022-09-21T10:50:52;39.52;36.20;41.75;;
66747;Laerm;53658;50.742;10.864;2022-09-21T10:53:29;39.30;36.45;41.61;;
66747;Laerm;53658;50.742;10.864;2022-09-21T10:58:37;39.05;35.66;41.22;;
66747;Laerm;53658;50.742;10.864;2022-09-21T11:01:22;39.12;35.66;41.38;;
66747;Laerm;53658;50.742;10.864;2022-09-21T11:06:57;38.40;34.31;41.14;;
66747;Laerm;53658;50.742;10.864;2022-09-21T11:09:47;38.28;33.90;41.06;;
66747;Laerm;53658;50.742;10.864;2022-09-21T11:26:20;38.57;35.01;40.98;;
66747;Laerm;53658;50.742;10.864;2022-09-21T11:29:04;38.47;34.69;41.14;;
66747;Laerm;53658;50.742;10.864;2022-09-21T11:40:17;38.13;33.90;40.71;;
66747;Laerm;53658;50.742;10.864;2022-09-21T11:46:15;38.03;33.44;40.80;;
66747;Laerm;53658;50.742;10.864;2022-09-21T11:58:00;38.02;32.35;43.49;;
66747;Laerm;53658;50.742;10.864;2022-09-21T12:00:42;37.93;32.93;42.98;;
66747;Laerm;53658;50.742;10.864;2022-09-21T12:11:42;37.81;32.35;40.63;;
66747;Laerm;53658;50.742;10.864;2022-09-21T12:17:03;37.78;33.44;40.23;;
66747;Laerm;53658;50.742;10.864;2022-09-21T12:22:25;38.31;34.31;40.89;;
66747;Laerm;53658;50.742;10.864;2022-09-21T12:30:13;37.90;30.89;40.80;;
66747;Laerm;53658;50.742;10.864;2022-09-21T12:38:14;37.87;32.93;40.62;;
66747;Laerm;53658;50.742;10.864;2022-09-21T12:46:28;38.68;34.69;41.22;;
66747;Laerm;53658;50.742;10.864;2022-09-21T12:48:59;38.32;33.44;40.98;;
66747;Laerm;53658;50.742;10.864;2022-09-21T12:51:35;38.24;33.90;40.89;;
66747;Laerm;53658;50.742;10.864;2022-09-21T12:54:22;38.03;33.90;40.62;;
66747;Laerm;53658;50.742;10.864;2022-09-21T12:59:48;38.11;33.90;42.53;;
66747;Laerm;53658;50.742;10.864;2022-09-21T13:13:17;38.16;33.09;41.14;;
66747;Laerm;53658;50.742;10.864;2022-09-21T13:15:47;38.14;33.90;40.53;;
66747;Laerm;53658;50.742;10.864;2022-09-21T13:18:28;38.10;32.93;41.06;;
66747;Laerm;53658;50.742;10.864;2022-09-21T13:20:57;38.00;33.44;41.96;;
66747;Laerm;53658;50.742;10.864;2022-09-21T13:23:29;37.74;32.35;40.71;;
66747;Laerm;53658;50.742;10.864;2022-09-21T13:26:01;37.76;32.93;40.53;;
66747;Laerm;53658;50.742;10.864;2022-09-21T13:34:25;37.75;33.44;40.43;;
66747;Laerm;53658;50.742;10.864;2022-09-21T13:39:42;37.82;32.93;41.22;;
66747;Laerm;53658;50.742;10.864;2022-09-21T13:44:55;37.79;33.90;41.68;;
66747;Laerm;53658;50.742;10.864;2022-09-21T13:47:36;37.82;32.93;40.71;;
66747;Laerm;53658;50.742;10.864;2022-09-21T13:50:28;37.76;32.93;40.53;;
66747;Laerm;53658;50.742;10.864;2022-09-21T13:53:04;37.69;33.44;41.14;;
66747;Laerm;53658;50.742;10.864;2022-09-21T13:55:49;37.69;32.35;41.19;;
66747;Laerm;53658;50.742;10.864;2022-09-21T13:58:33;37.70;33.44;41.30;;
66747;Laerm;53658;50.742;10.864;2022-09-21T14:01:04;37.72;33.44;40.43;;
66747;Laerm;53658;50.742;10.864;2022-09-21T14:04:19;37.73;32.93;40.71;;
66747;Laerm;53658;50.742;10.864;2022-09-21T14:06:49;37.82;33.44;41.96;;
66747;Laerm;53658;50.742;10.864;2022-09-21T14:09:27;38.25;32.93;44.47;;
66747;Laerm;53658;50.742;10.864;2022-09-21T14:12:03;38.04;32.35;42.88;;
66747;Laerm;53658;50.742;10.864;2022-09-21T14:14:36;37.96;32.35;42.22;;
66747;Laerm;53658;50.742;10.864;2022-09-21T14:17:39;37.92;32.35;41.89;;
66747;Laerm;53658;50.742;10.864;2022-09-21T14:20:31;37.88;32.35;42.65;;
66747;Laerm;53658;50.742;10.864;2022-09-21T14:23:25;37.79;32.35;43.34;;
66747;Laerm;53658;50.742;10.864;2022-09-21T14:25:57;37.66;32.35;41.53;;
66747;Laerm;53658;50.742;10.864;2022-09-21T14:31:04;37.59;32.93;40.71;;
66747;Laerm;53658;50.742;10.864;2022-09-21T14:33:43;37.61;31.68;40.62;;
66747;Laerm;53658;50.742;10.864;2022-09-21T14:36:17;37.79;33.44;40.43;;
66747;Laerm;53658;50.742;10.864;2022-09-21T14:38:55;37.93;33.44;41.14;;
66747;Laerm;53658;50.742;10.864;2022-09-21T14:41:30;38.36;34.31;41.30;;
66747;Laerm;53658;50.742;10.864;2022-09-21T14:43:58;38.85;35.04;41.14;;
66747;Laerm;53658;50.742;10.864;2022-09-21T14:46:47;39.08;34.69;41.38;;
66747;Laerm;53658;50.742;10.864;2022-09-21T14:57:33;39.70;37.52;42.13;;
66747;Laerm;53658;50.742;10.864;2022-09-21T15:00:24;39.65;37.52;42.03;;
66747;Laerm;53658;50.742;10.864;2022-09-21T15:05:55;39.69;37.12;41.46;;
66747;Laerm;53658;50.742;10.864;2022-09-21T15:08:46;39.69;37.32;41.46;;
66747;Laerm;53658;50.742;10.864;2022-09-21T15:11:43;39.72;37.52;41.46;;
66747;Laerm;53658;50.742;10.864;2022-09-21T15:14:38;39.74;37.32;41.61;;
66747;Laerm;53658;50.742;10.864;2022-09-21T15:17:28;39.78;37.32;41.89;;
66747;Laerm;53658;50.742;10.864;2022-09-21T15:19:59;39.80;37.52;41.61;;
66747;Laerm;53658;50.742;10.864;2022-09-21T15:22:28;39.78;37.52;41.82;;
66747;Laerm;53658;50.742;10.864;2022-09-21T15:24:57;39.77;37.12;41.61;;
66747;Laerm;53658;50.742;10.864;2022-09-21T15:27:29;39.77;37.32;41.61;;
66747;Laerm;53658;50.742;10.864;2022-09-21T15:30:02;39.70;36.45;41.82;;
66747;Laerm;53658;50.742;10.864;2022-09-21T15:32:39;39.76;37.32;42.16;;
66747;Laerm;53658;50.742;10.864;2022-09-21T15:37:41;40.21;36.91;55.98;;
66747;Laerm;53658;50.742;10.864;2022-09-21T15:45:51;38.74;35.04;43.04;;
66747;Laerm;53658;50.742;10.864;2022-09-21T15:48:23;39.09;35.66;41.75;;
66747;Laerm;53658;50.742;10.864;2022-09-21T15:50:58;39.01;35.36;41.14;;
66747;Laerm;53658;50.742;10.864;2022-09-21T15:53:30;39.00;35.66;41.19;;
66747;Laerm;53658;50.742;10.864;2022-09-21T15:55:59;39.01;35.66;41.53;;
66747;Laerm;53658;50.742;10.864;2022-09-21T15:58:33;38.91;35.66;41.14;;
66747;Laerm;53658;50.742;10.864;2022-09-21T16:01:13;39.13;35.94;41.53;;
66747;Laerm;53658;50.742;10.864;2022-09-21T16:03:41;39.59;36.91;41.53;;
66747;Laerm;53658;50.742;10.864;2022-09-21T16:06:34;39.66;36.91;41.53;;
66747;Laerm;53658;50.742;10.864;2022-09-21T16:11:53;39.69;36.77;41.46;;
66747;Laerm;53658;50.742;10.864;2022-09-21T16:14:20;39.65;37.32;41.53;;
66747;Laerm;53658;50.742;10.864;2022-09-21T16:19:43;39.65;37.32;41.38;;
66747;Laerm;53658;50.742;10.864;2022-09-21T16:22:27;39.70;37.12;41.53;;
66747;Laerm;53658;50.742;10.864;2022-09-21T16:24:57;39.90;37.52;41.96;;
66747;Laerm;53658;50.742;10.864;2022-09-21T16:27:29;40.14;37.70;44.03;;
66747;Laerm;53658;50.742;10.864;2022-09-21T16:29:57;40.21;37.52;44.47;;
66747;Laerm;53658;50.742;10.864;2022-09-21T16:32:30;40.24;37.88;42.98;;
66747;Laerm;53658;50.742;10.864;2022-09-21T16:37:49;40.33;38.05;42.47;;
66747;Laerm;53658;50.742;10.864;2022-09-21T16:40:16;40.49;37.88;46.13;;
66747;Laerm;53658;50.742;10.864;2022-09-21T16:42:43;40.52;38.37;42.35;;
66747;Laerm;53658;50.742;10.864;2022-09-21T16:45:26;40.58;38.52;44.65;;
66747;Laerm;53658;50.742;10.864;2022-09-21T16:47:54;40.79;38.37;44.43;;
66747;Laerm;53658;50.742;10.864;2022-09-21T16:50:20;41.23;38.52;68.35;;
66747;Laerm;53658;50.742;10.864;2022-09-21T16:52:46;40.70;38.52;43.90;;
66747;Laerm;53658;50.742;10.864;2022-09-21T16:55:16;40.49;38.21;42.22;;
66747;Laerm;53658;50.742;10.864;2022-09-21T16:57:41;40.65;38.37;63.76;;
66747;Laerm;53658;50.742;10.864;2022-09-21T17:00:09;40.27;38.05;42.29;;
66747;Laerm;53658;50.742;10.864;2022-09-21T17:02:35;40.15;37.88;42.03;;
66747;Laerm;53658;50.742;10.864;2022-09-21T17:05:01;40.11;37.70;42.03;;
66747;Laerm;53658;50.742;10.864;2022-09-21T17:07:27;40.11;37.88;41.75;;
66747;Laerm;53658;50.742;10.864;2022-09-21T17:09:53;40.04;37.88;41.82;;
66747;Laerm;53658;50.742;10.864;2022-09-21T17:12:18;40.03;37.52;41.68;;
66747;Laerm;53658;50.742;10.864;2022-09-21T17:14:44;39.96;37.88;42.03;;
66747;Laerm;53658;50.742;10.864;2022-09-21T17:17:17;40.03;37.52;42.53;;
66747;Laerm;53658;50.742;10.864;2022-09-21T17:19:45;40.02;37.70;41.61;;